RJSC(METAR)
08/12 19:00
METAR RJSC 121000Z 01005KT 9999 FEW040 SCT060 BKN/// 26/25 Q1007 RMK
1CU040 3SC060 A2974=
戻る
トップページへ戻る
IMOC Co,.Ltd.